Baltimore/Washington International Thurgood Marshal Airport
KBWI : now visible

Airfield :











YOU CAN JOIN US ON...

 
LOGIN :

Register | Disclaimer

   EN    FR    IT 

 









Legend :    VFR   Marginal VFR   IFR   Intensive IFR   Very Intensive IFR
Visi :
Ceiling :
>= 8 km
>= 3000ft
5 to 8 km
1000 to 3000 ft
1500m to 5 km
500 to 1000 ft
800 to 1500m
200 to 500 ft
< 800m
< 200 ft
Symbols :   Thunderstorms  Fog  Heavy snow  Heavy precipitations  Wind > 20 kt






- Airport Elevation : 146 ft
- IATA code : BWI


KBWI - Baltimore/Washington International Thurgood Marshal

CURRENT METAR :
  • 281454Z 15008KT 6SM -DZ BR BKN007 OVC011 23/21 A3007 RMK AO2 SLP182 P0000 60002 T02280211 58007

EXPIRED METARs :
  • 281354Z 15013G18KT 8SM -DZ BKN007 OVC016 23/21 A3008 RMK AO2 RAE36DZB45 SLP184 P0002 T02280211
  • 281311Z 14008G16KT 3SM -RA BR BKN009 OVC016 23/21 A3009 RMK AO2 P0002 T02280211
  • 281254Z 14007G17KT 2SM -RA BR OVC006 22/21 A3009 RMK AO2 SLP189 P0000 T02220206

TAF KBWI
Valid from the 28 at 15:00 until the 29 at 18:00 UTC


281512Z 2815/2918 15010G17KT 6SM -SHRA BR OVC008
FM281800 15011G20KT P6SM -SHRA SCT025 OVC045
FM282100 17011KT P6SM VCSH BKN045
FM290600 17006KT P6SM OVC008
FM291600 19008KT P6SM BKN025
KZDC FIR / North America



MET'MAP, your aeronautical weather chart ! - Copyright ORBIFLY December 2007 - Disclaimer

ORBIFLY MET'MAP TEAM :

Programming & Development : Alexandra Zaïnal
Concept & original design : Baudouin d'Aumeries
Assistance for programming : Marc-Olivier Méhu
Technical & hardware support : Manuel Goepfert

Contact : metmap@orbifly.com




SOURCES & CREDITS :

   NOAA       Earth
Advisory